NCAR-RAP Real-Time Weather Data

Output produced by METARs form (08 May 2021  01:18 UTC)
found at http://weather.rap.ucar.edu/surface/
 
KYKM 080053Z 35019G27KT 10SM SCT080 13/M03 A3015 RMK AO2 PK WND 33029/0006 SLP214 T01331033
KYKM 072353Z 32018G28KT 10SM FEW070 14/M02 A3013 RMK AO2 PK WND 31028/2330 SLP208 60000 T01441017 10167 20139 53013
KYKM 072253Z 28017G27KT 10SM SCT075 16/M04 A3012 RMK AO2 PK WND 27031/2156 SLP199 T01611039
KYKM 072153Z 26021G34KT 10SM SCT070 16/M04 A3009 RMK AO2 PK WND 24034/2152 SLP192 T01611044
KYKM 072053Z COR 26017G27 10SM SCT070 16/M03 A3009 RMK AO2 SLP192 60000 T01611028 50002
KYKM 071953Z 33009G18KT 10SM FEW065 FEW100 15/M01 A3010 RMK AO2 PK WND 30030/1919 SLP195 T01501011
KYKM 071853Z 29017G30KT 10SM BKN070 15/M03 A3009 RMK AO2 PK WND 28032/1842 RAB10E20 SLP191 P0000 T01501033
KYKM 071753Z VRB04KT 10SM BKN080 14/M02 A3009 RMK AO2 SLP190 T01441017 10144 20011 58009
KYKM 071653Z VRB03KT 10SM CLR 13/M01 A3011 RMK AO2 SLP195 T01281006
KYKM 071553Z 33003KT 10SM CLR 11/M02 A3011 RMK AO2 SLP198 T01111017
KYKM 071453Z 00000KT 10SM FEW120 09/M01 A3012 RMK AO2 SLP199 T00891006 53010
KYKM 071353Z 27005KT 10SM CLR 05/M01 A3010 RMK AO2 SLP196 T00501011
KYKM 071253Z 00000KT 10SM CLR 03/M02 A3009 RMK AO2 SLP193 T00281022